createdAt,value
2023-05-23T06:14:40.595Z,100.00
2023-05-23T06:19:45.271Z,100.00
2023-05-23T06:24:49.961Z,100.00
2023-05-23T06:29:56.084Z,100.00
2023-05-23T06:34:59.567Z,100.00
2023-05-23T06:40:06.138Z,100.00
2023-05-23T06:45:12.449Z,100.00
2023-05-23T06:50:19.826Z,100.00
2023-05-23T06:55:24.920Z,100.00
2023-05-23T07:00:30.206Z,100.00
2023-05-23T07:05:52.371Z,100.00
2023-05-23T07:10:58.850Z,97.72
2023-05-23T07:16:15.116Z,87.78
2023-05-23T07:21:29.917Z,81.68
2023-05-23T07:26:33.648Z,77.54
2023-05-23T07:31:38.833Z,77.75
2023-05-23T07:36:43.727Z,78.11
2023-05-23T07:41:49.052Z,72.06
2023-05-23T07:46:54.899Z,71.33
2023-05-23T07:51:59.774Z,70.62
2023-05-23T07:57:03.753Z,71.29
2023-05-23T08:02:10.980Z,71.60
2023-05-23T08:07:18.642Z,70.31
2023-05-23T08:12:27.431Z,69.98
2023-05-23T08:17:48.047Z,71.19
2023-05-23T08:22:53.029Z,69.26
2023-05-23T08:27:57.824Z,69.80
2023-05-23T08:33:23.605Z,68.93
2023-05-23T08:38:32.284Z,71.38
2023-05-23T08:43:59.067Z,71.11
2023-05-23T08:49:11.027Z,68.35
2023-05-23T08:54:19.033Z,71.17
2023-05-23T08:59:24.489Z,69.42
2023-05-23T09:10:12.554Z,69.68
2023-05-23T09:15:17.392Z,69.93
2023-05-23T09:20:23.908Z,70.86
2023-05-23T09:25:34.417Z,71.19
2023-05-23T09:30:40.792Z,68.90
2023-05-23T09:35:48.999Z,68.21
2023-05-23T09:40:56.428Z,68.98
2023-05-23T09:46:03.730Z,70.40
2023-05-23T09:51:11.538Z,71.05
2023-05-23T09:56:17.550Z,73.33
2023-05-23T10:01:22.487Z,72.30
2023-05-23T10:06:33.131Z,72.53
2023-05-23T10:11:51.966Z,71.57
2023-05-23T10:17:00.901Z,74.57
2023-05-23T10:22:07.853Z,73.64
2023-05-23T10:27:14.752Z,71.18
2023-05-23T10:32:18.972Z,76.20
2023-05-23T10:37:27.611Z,75.07
2023-05-23T10:42:39.694Z,72.71
2023-05-23T10:47:45.769Z,74.71
2023-05-23T10:52:54.491Z,76.53
2023-05-23T10:58:12.990Z,73.99
2023-05-23T11:03:32.300Z,73.93
2023-05-23T11:08:48.395Z,79.35
2023-05-23T11:13:57.570Z,83.21
2023-05-23T11:19:20.039Z,83.68
2023-05-23T11:24:25.757Z,87.24
2023-05-23T11:29:30.084Z,86.61
2023-05-23T11:34:33.636Z,86.80
2023-05-23T11:39:38.697Z,86.76
2023-05-23T11:44:42.519Z,88.38
2023-05-23T11:49:46.823Z,89.84
2023-05-23T11:54:53.626Z,92.07
2023-05-23T11:59:58.692Z,93.35
2023-05-23T12:05:07.927Z,96.51
2023-05-23T12:10:13.146Z,93.93
2023-05-23T12:15:16.650Z,95.55
2023-05-23T12:20:21.251Z,93.56
2023-05-23T12:25:26.218Z,100.00
2023-05-23T12:30:30.085Z,95.20
2023-05-23T12:35:33.971Z,96.82
2023-05-23T12:40:38.960Z,95.80
2023-05-23T12:45:44.993Z,96.63
2023-05-23T12:50:48.905Z,95.07
2023-05-23T12:55:54.040Z,92.83
2023-05-23T13:00:57.875Z,93.07
2023-05-23T13:06:01.880Z,93.14
2023-05-23T13:11:07.585Z,95.91
2023-05-23T13:16:11.299Z,100.00
2023-05-23T13:21:14.849Z,100.00
2023-05-23T13:26:19.986Z,100.00
2023-05-23T13:31:23.511Z,100.00
2023-05-23T13:36:27.147Z,100.00
2023-05-23T13:41:32.558Z,100.00
2023-05-23T13:46:36.324Z,100.00
2023-05-23T13:51:40.433Z,100.00
2023-05-23T13:56:45.453Z,100.00
2023-05-23T14:01:49.310Z,100.00
2023-05-23T14:06:53.186Z,100.00
2023-05-23T14:12:15.286Z,100.00
2023-05-23T14:17:20.148Z,100.00
2023-05-23T14:22:23.530Z,100.00
2023-05-23T14:27:29.302Z,100.00
2023-05-23T14:32:38.928Z,100.00
2023-05-23T14:37:42.544Z,100.00
2023-05-23T14:42:48.693Z,100.00
2023-05-23T14:47:53.761Z,100.00
2023-05-23T14:52:57.326Z,100.00
2023-05-23T14:58:01.009Z,100.00
2023-05-23T15:03:08.867Z,100.00
2023-05-23T15:08:12.466Z,100.00
2023-05-23T15:13:18.044Z,100.00
2023-05-23T15:18:38.888Z,100.00
2023-05-23T15:23:44.511Z,100.00
2023-05-23T15:28:49.874Z,100.00
2023-05-23T15:33:54.650Z,100.00
2023-05-23T15:38:57.993Z,100.00
2023-05-23T15:44:01.372Z,100.00
2023-05-23T15:49:21.255Z,100.00
2023-05-23T15:54:28.122Z,100.00
2023-05-23T15:59:32.431Z,100.00
2023-05-23T16:04:38.999Z,100.00
2023-05-23T16:09:42.770Z,100.00
2023-05-23T16:14:46.418Z,100.00
2023-05-23T16:19:55.357Z,100.00
2023-05-23T16:24:59.320Z,100.00
2023-05-23T16:30:03.001Z,100.00
2023-05-23T16:35:08.615Z,100.00
2023-05-23T16:40:14.824Z,100.00
2023-05-23T16:45:18.570Z,100.00
2023-05-23T16:50:23.608Z,100.00
2023-05-23T16:55:27.578Z,100.00
2023-05-23T17:00:31.280Z,100.00
2023-05-23T17:05:36.342Z,100.00
2023-05-23T17:10:42.183Z,100.00
2023-05-23T17:15:46.342Z,100.00
2023-05-23T17:20:51.617Z,100.00
2023-05-23T17:25:56.339Z,100.00
2023-05-23T17:31:01.095Z,100.00
2023-05-23T17:36:09.527Z,100.00
2023-05-23T17:41:14.636Z,100.00
2023-05-23T17:46:18.237Z,100.00
2023-05-23T17:51:23.238Z,100.00
2023-05-23T17:56:26.703Z,100.00
2023-05-23T18:01:30.250Z,100.00
2023-05-23T18:06:35.258Z,100.00
2023-05-23T18:11:39.019Z,100.00
2023-05-23T18:16:42.617Z,100.00
2023-05-23T18:21:50.339Z,100.00
2023-05-23T18:26:55.711Z,100.00
2023-05-23T18:31:59.325Z,100.00
2023-05-23T18:37:08.893Z,100.00
2023-05-23T18:42:12.790Z,100.00
2023-05-23T18:47:17.887Z,100.00
2023-05-23T18:52:23.860Z,100.00
2023-05-23T18:57:28.026Z,100.00
2023-05-23T19:07:55.312Z,100.00
2023-05-23T19:13:00.513Z,100.00
2023-05-23T19:18:07.262Z,100.00
2023-05-23T19:23:14.886Z,100.00
2023-05-23T19:28:22.402Z,100.00
2023-05-23T19:33:27.097Z,100.00
2023-05-23T19:38:32.593Z,100.00
2023-05-23T19:43:39.094Z,100.00
2023-05-23T19:48:44.056Z,100.00
2023-05-23T19:53:50.984Z,100.00
2023-05-23T19:58:55.030Z,100.00
2023-05-23T20:03:59.048Z,100.00
2023-05-23T20:09:08.755Z,100.00
2023-05-23T20:14:12.810Z,100.00
2023-05-23T20:19:16.972Z,100.00
2023-05-23T20:24:23.642Z,100.00
2023-05-23T20:29:27.641Z,100.00
2023-05-23T20:34:38.911Z,100.00
2023-05-23T20:39:44.220Z,100.00
2023-05-23T20:44:48.396Z,100.00
2023-05-23T20:49:52.197Z,100.00
2023-05-23T20:55:01.613Z,100.00
2023-05-23T21:00:09.691Z,100.00
2023-05-23T21:05:14.013Z,100.00
2023-05-23T21:10:20.490Z,100.00
2023-05-23T21:15:24.837Z,100.00
